createdAt,value
2023-05-20T00:01:33.574Z,13.40
2023-05-20T00:04:09.647Z,13.30
2023-05-20T00:06:45.769Z,13.40
2023-05-20T00:09:21.656Z,13.30
2023-05-20T00:11:57.577Z,13.30
2023-05-20T00:14:33.498Z,13.20
2023-05-20T00:17:09.420Z,13.20
2023-05-20T00:19:45.344Z,13.20
2023-05-20T00:22:21.589Z,13.20
2023-05-20T00:24:57.469Z,13.10
2023-05-20T00:27:33.391Z,13.10
2023-05-20T00:30:10.821Z,13.10
2023-05-20T00:32:48.082Z,13.10
2023-05-20T00:35:24.188Z,13.10
2023-05-20T00:38:00.136Z,13.10
2023-05-20T00:40:36.114Z,13.10
2023-05-20T00:43:12.232Z,13.10
2023-05-20T00:45:48.329Z,13.10
2023-05-20T00:48:24.382Z,13.10
2023-05-20T00:51:01.092Z,13.10
2023-05-20T00:53:37.239Z,13.10
2023-05-20T00:56:13.607Z,13.10
2023-05-20T00:58:50.927Z,13.20
2023-05-20T01:01:26.874Z,13.20
2023-05-20T01:04:03.126Z,13.30
2023-05-20T01:06:40.105Z,13.30
2023-05-20T01:09:16.069Z,13.30
2023-05-20T01:12:04.225Z,13.40
2023-05-20T01:15:11.989Z,13.40
2023-05-20T01:17:53.083Z,13.40
2023-05-20T01:20:32.454Z,13.40
2023-05-20T01:23:09.563Z,13.50
2023-05-20T01:25:45.442Z,13.50
2023-05-20T01:28:23.396Z,13.50
2023-05-20T01:31:04.111Z,13.50
2023-05-20T01:33:41.104Z,13.50
2023-05-20T01:36:18.688Z,13.50
2023-05-20T01:38:56.140Z,13.50
2023-05-20T01:41:34.458Z,13.50
2023-05-20T01:44:10.533Z,13.50
2023-05-20T01:46:50.862Z,13.50
2023-05-20T01:49:27.013Z,13.40
2023-05-20T01:52:03.391Z,13.40
2023-05-20T01:54:39.332Z,13.40
2023-05-20T01:57:15.505Z,13.40
2023-05-20T01:59:51.928Z,13.40
2023-05-20T02:02:28.015Z,13.40
2023-05-20T02:05:04.270Z,13.40
2023-05-20T02:07:40.168Z,13.40
2023-05-20T02:10:16.212Z,13.40
2023-05-20T02:12:52.181Z,13.40
2023-05-20T02:15:28.116Z,13.40
2023-05-20T02:18:06.199Z,13.40
2023-05-20T02:20:42.657Z,13.40
2023-05-20T02:23:18.610Z,13.40
2023-05-20T02:25:54.491Z,13.30
2023-05-20T02:28:30.378Z,13.30
2023-05-20T02:31:06.516Z,13.30
2023-05-20T02:33:42.483Z,13.30
2023-05-20T02:36:18.550Z,13.30
2023-05-20T02:38:56.778Z,13.20
2023-05-20T02:41:32.719Z,13.20
2023-05-20T02:44:08.697Z,13.20
2023-05-20T02:46:44.636Z,13.20
2023-05-20T02:49:20.697Z,13.10
2023-05-20T02:51:56.920Z,13.10
2023-05-20T02:54:33.039Z,13.10
2023-05-20T02:57:08.984Z,13.10
2023-05-20T02:59:46.016Z,13.10
2023-05-20T03:02:23.464Z,13.10
2023-05-20T03:04:59.698Z,13.00
2023-05-20T03:07:37.080Z,13.00
2023-05-20T03:10:16.046Z,13.00
2023-05-20T03:12:53.236Z,13.00
2023-05-20T03:15:29.163Z,13.00
2023-05-20T03:18:06.434Z,12.90
2023-05-20T03:20:42.805Z,12.90
2023-05-20T03:23:18.895Z,12.90
2023-05-20T03:25:55.878Z,12.90
2023-05-20T03:28:31.793Z,13.00
2023-05-20T03:31:07.766Z,12.90
2023-05-20T03:33:45.470Z,12.90
2023-05-20T03:36:21.578Z,12.90
2023-05-20T03:38:57.880Z,12.80
2023-05-20T03:41:33.760Z,12.80
2023-05-20T03:44:09.733Z,12.80
2023-05-20T03:46:46.108Z,12.80
2023-05-20T03:49:22.926Z,12.70
2023-05-20T03:51:58.819Z,12.70
2023-05-20T03:54:36.182Z,12.70
2023-05-20T03:57:12.642Z,12.70
2023-05-20T03:59:48.564Z,12.70
2023-05-20T04:02:24.636Z,12.60
2023-05-20T04:05:02.285Z,12.60
2023-05-20T04:07:38.962Z,12.60
2023-05-20T04:10:20.460Z,12.60
2023-05-20T04:12:56.610Z,12.60
2023-05-20T04:15:36.873Z,12.70
2023-05-20T04:18:13.815Z,12.70
2023-05-20T04:20:56.392Z,12.70
2023-05-20T04:23:32.967Z,12.70
2023-05-20T04:26:08.949Z,12.80
2023-05-20T04:28:48.637Z,12.80
2023-05-20T04:31:28.362Z,12.80
2023-05-20T04:34:04.426Z,12.90
2023-05-20T04:36:40.747Z,12.90
2023-05-20T04:39:20.484Z,13.00
2023-05-20T04:42:00.607Z,13.10
2023-05-20T04:44:36.907Z,13.10
2023-05-20T04:47:12.881Z,13.20
2023-05-20T04:49:50.288Z,13.30
2023-05-20T04:52:26.680Z,13.30
2023-05-20T04:55:03.045Z,13.20
2023-05-20T04:57:43.611Z,13.30
2023-05-20T05:00:19.634Z,13.30
2023-05-20T05:02:56.368Z,13.30
2023-05-20T05:05:32.610Z,13.30
2023-05-20T05:08:11.535Z,13.40
2023-05-20T05:10:52.982Z,13.40
2023-05-20T05:13:31.105Z,13.60
2023-05-20T05:16:07.374Z,13.70
2023-05-20T05:18:44.223Z,13.90
2023-05-20T05:21:20.706Z,14.10
2023-05-20T05:23:58.809Z,14.30
2023-05-20T05:26:35.075Z,14.50
2023-05-20T05:29:11.801Z,14.60
2023-05-20T05:31:48.459Z,14.80
2023-05-20T05:34:24.587Z,14.90
2023-05-20T05:37:00.965Z,15.00
2023-05-20T05:39:37.823Z,15.00
2023-05-20T05:42:14.715Z,15.10
2023-05-20T05:44:51.925Z,15.30
2023-05-20T05:47:32.796Z,15.40
2023-05-20T05:50:10.447Z,15.50
2023-05-20T05:52:47.217Z,15.70
2023-05-20T05:55:24.291Z,15.80
2023-05-20T05:58:00.411Z,16.00
2023-05-20T06:00:38.222Z,16.00
2023-05-20T06:03:14.441Z,16.00
2023-05-20T06:05:50.491Z,16.10
2023-05-20T06:08:29.467Z,16.20
2023-05-20T06:11:05.596Z,16.30
2023-05-20T06:13:41.651Z,16.40
2023-05-20T06:16:18.813Z,16.50
2023-05-20T06:18:57.247Z,16.60
2023-05-20T06:21:33.413Z,16.60
2023-05-20T06:24:09.549Z,16.70
2023-05-20T06:26:46.249Z,16.70
2023-05-20T06:29:22.227Z,16.70
2023-05-20T06:31:58.263Z,16.60
2023-05-20T06:34:34.306Z,16.60
2023-05-20T06:37:11.372Z,16.50
2023-05-20T06:39:51.375Z,16.50
2023-05-20T06:42:27.534Z,16.40
2023-05-20T06:45:13.966Z,16.50
2023-05-20T06:47:54.170Z,16.60
2023-05-20T06:50:30.115Z,16.60
2023-05-20T06:53:07.043Z,16.80
2023-05-20T06:55:42.979Z,17.00
2023-05-20T06:58:19.814Z,17.20
2023-05-20T07:00:55.758Z,17.30
2023-05-20T07:03:32.185Z,17.30
2023-05-20T07:06:08.161Z,17.40
2023-05-20T07:08:44.728Z,17.60
2023-05-20T07:11:23.145Z,17.70
2023-05-20T07:13:59.070Z,17.90
2023-05-20T07:16:36.808Z,18.10
2023-05-20T07:19:12.860Z,18.40
2023-05-20T07:21:49.955Z,18.50
2023-05-20T07:24:50.455Z,18.80
2023-05-20T07:27:26.486Z,18.90
2023-05-20T07:30:02.940Z,18.90
2023-05-20T07:32:40.493Z,18.80
2023-05-20T07:35:16.602Z,18.70
2023-05-20T07:37:53.113Z,18.60
2023-05-20T07:40:29.133Z,18.50
2023-05-20T07:43:05.076Z,18.50
2023-05-20T07:45:41.045Z,18.50
2023-05-20T07:48:17.083Z,18.40
2023-05-20T07:50:53.091Z,18.30
2023-05-20T07:53:29.313Z,18.30
2023-05-20T07:56:05.498Z,18.40
2023-05-20T07:58:42.701Z,18.50
2023-05-20T08:01:20.198Z,18.70
2023-05-20T08:03:56.351Z,18.90
2023-05-20T08:06:35.307Z,18.90
2023-05-20T08:09:16.481Z,19.00
2023-05-20T08:11:57.442Z,19.00
2023-05-20T08:14:33.391Z,19.10
2023-05-20T08:17:09.386Z,19.20
2023-05-20T08:19:46.138Z,19.30
2023-05-20T08:22:23.414Z,19.40
2023-05-20T08:24:59.417Z,19.50
2023-05-20T08:27:37.306Z,19.60
2023-05-20T08:30:14.258Z,19.80
2023-05-20T08:32:50.868Z,19.90
2023-05-20T08:35:27.076Z,20.00
2023-05-20T08:38:03.038Z,20.20
2023-05-20T08:40:39.197Z,20.40
2023-05-20T08:43:15.477Z,20.70
2023-05-20T08:45:54.932Z,20.90
2023-05-20T08:48:34.127Z,21.10
2023-05-20T08:51:13.201Z,21.20
2023-05-20T08:53:49.796Z,21.50
2023-05-20T08:56:28.182Z,21.60
2023-05-20T08:59:06.612Z,21.80
2023-05-20T09:01:43.627Z,22.00
2023-05-20T09:04:19.577Z,22.10
2023-05-20T09:06:55.742Z,22.20
2023-05-20T09:09:34.185Z,22.10
2023-05-20T09:12:11.298Z,22.20
2023-05-20T09:14:47.222Z,22.30
2023-05-20T09:17:24.157Z,22.20
2023-05-20T09:20:00.170Z,22.20
2023-05-20T09:22:36.791Z,22.20
2023-05-20T09:25:13.332Z,22.20
2023-05-20T09:27:50.576Z,22.30
2023-05-20T09:30:26.933Z,22.30
2023-05-20T09:33:05.535Z,22.30
2023-05-20T09:35:42.145Z,22.30
2023-05-20T09:38:19.396Z,22.40
2023-05-20T09:40:55.589Z,22.40
2023-05-20T09:43:31.978Z,22.60
2023-05-20T09:46:08.594Z,22.90
2023-05-20T09:48:44.762Z,23.20
2023-05-20T09:51:22.954Z,23.40
2023-05-20T09:53:59.460Z,23.50
2023-05-20T09:56:35.995Z,23.70
2023-05-20T09:59:13.883Z,23.90
2023-05-20T10:01:49.800Z,24.00
2023-05-20T10:04:26.836Z,24.00
2023-05-20T10:07:37.820Z,24.10
2023-05-20T10:10:53.742Z,24.20
2023-05-20T10:13:48.811Z,24.50
2023-05-20T10:16:54.516Z,24.80
2023-05-20T10:19:34.626Z,24.90
2023-05-20T10:22:14.391Z,25.10
2023-05-20T10:25:00.330Z,25.10
2023-05-20T10:27:44.640Z,25.10
2023-05-20T10:30:22.462Z,25.10
2023-05-20T10:33:05.055Z,25.00
2023-05-20T10:35:50.744Z,24.90
2023-05-20T10:38:26.710Z,24.80
2023-05-20T10:41:13.062Z,24.90
2023-05-20T10:44:03.836Z,25.10
2023-05-20T10:46:54.375Z,25.30
2023-05-20T10:49:36.173Z,25.40
2023-05-20T10:52:13.933Z,25.60
2023-05-20T10:54:58.635Z,25.80
2023-05-20T10:57:34.876Z,26.00
2023-05-20T11:00:11.592Z,26.10
2023-05-20T11:02:49.409Z,26.10
2023-05-20T11:05:27.142Z,26.30
2023-05-20T11:08:13.564Z,26.30
2023-05-20T11:10:59.423Z,26.40
2023-05-20T11:13:36.188Z,26.50
2023-05-20T11:16:12.929Z,26.50
2023-05-20T11:18:50.352Z,26.50
2023-05-20T11:21:26.322Z,26.50
2023-05-20T11:24:02.226Z,26.40
2023-05-20T11:26:38.503Z,26.30
2023-05-20T11:29:14.444Z,26.20
2023-05-20T11:31:53.551Z,26.30
2023-05-20T11:34:40.047Z,26.30
2023-05-20T11:37:17.786Z,26.40
2023-05-20T11:40:11.318Z,26.70
2023-05-20T11:42:47.196Z,26.90
2023-05-20T11:45:23.859Z,27.00
2023-05-20T11:48:02.355Z,27.10
2023-05-20T11:50:44.761Z,27.10
2023-05-20T11:53:22.898Z,27.20
2023-05-20T11:56:00.436Z,27.40
2023-05-20T11:58:36.398Z,27.40
2023-05-20T12:01:21.781Z,27.40
2023-05-20T12:03:59.125Z,26.90
2023-05-20T12:06:37.188Z,27.50
2023-05-20T12:09:13.977Z,27.70
2023-05-20T12:11:50.188Z,27.60
2023-05-20T12:14:26.129Z,27.50
2023-05-20T12:17:02.121Z,27.50
2023-05-20T12:19:39.801Z,27.60
2023-05-20T12:22:17.164Z,27.70
2023-05-20T12:24:54.691Z,27.90
2023-05-20T12:27:31.222Z,28.30
2023-05-20T12:30:09.837Z,28.80
2023-05-20T12:32:47.021Z,29.10
2023-05-20T12:35:38.395Z,29.30
2023-05-20T12:38:14.280Z,29.40
2023-05-20T12:40:50.177Z,29.40
2023-05-20T12:43:26.243Z,29.60
2023-05-20T12:46:02.303Z,29.80
2023-05-20T12:48:38.764Z,30.00
2023-05-20T12:51:15.915Z,30.30
2023-05-20T12:53:51.808Z,30.50
2023-05-20T12:56:27.731Z,30.80
2023-05-20T12:59:03.647Z,31.10
2023-05-20T13:01:40.302Z,31.20
2023-05-20T13:04:16.585Z,31.10
2023-05-20T13:06:52.618Z,31.00
2023-05-20T13:09:28.560Z,31.00
2023-05-20T13:12:04.970Z,31.10
2023-05-20T13:14:41.559Z,31.30
2023-05-20T13:17:17.527Z,31.60
2023-05-20T13:19:53.417Z,31.80
2023-05-20T13:22:29.332Z,31.90
2023-05-20T13:25:06.634Z,31.90
2023-05-20T13:27:42.684Z,32.10
2023-05-20T13:30:18.585Z,32.30
2023-05-20T13:32:55.493Z,32.40
2023-05-20T13:35:32.232Z,32.50
2023-05-20T13:38:08.331Z,32.60
2023-05-20T13:40:44.230Z,32.70
2023-05-20T13:43:20.156Z,32.80
2023-05-20T13:45:56.199Z,32.90
2023-05-20T13:48:33.097Z,32.80
2023-05-20T13:51:09.140Z,33.10
2023-05-20T13:53:45.056Z,33.20
2023-05-20T13:56:21.298Z,33.20
2023-05-20T13:58:57.280Z,33.20
2023-05-20T14:01:33.661Z,33.20
2023-05-20T14:04:09.977Z,33.00
2023-05-20T14:06:46.353Z,32.70
2023-05-20T14:09:22.278Z,32.50
2023-05-20T14:11:58.229Z,32.30
2023-05-20T14:14:34.191Z,32.10
2023-05-20T14:17:10.489Z,32.10
2023-05-20T14:19:46.549Z,31.90
2023-05-20T14:22:22.445Z,31.70
2023-05-20T14:24:58.521Z,31.60
2023-05-20T14:27:34.868Z,31.60
2023-05-20T14:30:11.562Z,31.60
2023-05-20T14:32:47.564Z,31.70
2023-05-20T14:35:23.515Z,31.80
2023-05-20T14:37:59.812Z,31.90
2023-05-20T14:40:36.087Z,32.00
2023-05-20T14:43:12.250Z,31.90
2023-05-20T14:45:48.993Z,32.00
2023-05-20T14:48:24.932Z,32.30
2023-05-20T14:51:00.832Z,32.60
2023-05-20T14:53:36.773Z,32.80
2023-05-20T14:56:12.698Z,32.70
2023-05-20T14:58:48.602Z,32.50
2023-05-20T15:01:24.586Z,32.40
2023-05-20T15:04:00.798Z,32.40
2023-05-20T15:06:37.134Z,32.50
2023-05-20T15:09:13.055Z,33.00
2023-05-20T15:11:49.269Z,33.40
2023-05-20T15:14:25.203Z,33.50
2023-05-20T15:17:01.164Z,33.30
2023-05-20T15:19:38.953Z,33.10
2023-05-20T15:22:16.522Z,32.90
2023-05-20T15:24:52.566Z,32.70
2023-05-20T15:27:28.466Z,32.50
2023-05-20T15:30:04.957Z,32.40
2023-05-20T15:32:42.686Z,32.30
2023-05-20T15:35:18.764Z,32.00
2023-05-20T15:37:54.730Z,31.70
2023-05-20T15:40:30.648Z,31.40
2023-05-20T15:43:07.889Z,31.30
2023-05-20T15:45:44.755Z,31.10
2023-05-20T15:48:22.105Z,31.20
2023-05-20T15:50:57.974Z,31.90
2023-05-20T15:53:33.879Z,33.40
2023-05-20T15:56:12.264Z,35.10
2023-05-20T15:58:48.623Z,36.30
2023-05-20T16:01:26.880Z,37.00
2023-05-20T16:04:02.849Z,37.30
2023-05-20T16:06:38.858Z,37.40
2023-05-20T16:09:14.794Z,37.10
2023-05-20T16:11:50.759Z,37.00
2023-05-20T16:14:26.688Z,36.70
2023-05-20T16:17:02.595Z,36.60
2023-05-20T16:19:38.602Z,37.00
2023-05-20T16:22:15.712Z,38.30
2023-05-20T16:24:51.636Z,39.50
2023-05-20T16:27:27.699Z,39.60
2023-05-20T16:30:07.416Z,38.70
2023-05-20T16:32:43.649Z,37.80
2023-05-20T16:35:19.616Z,37.20
2023-05-20T16:37:55.670Z,36.70
2023-05-20T16:40:31.938Z,36.30
2023-05-20T16:43:08.023Z,36.30
2023-05-20T16:45:44.167Z,36.10
2023-05-20T16:48:21.375Z,35.90
2023-05-20T16:50:59.739Z,35.70
2023-05-20T16:53:35.955Z,35.10
2023-05-20T16:56:14.942Z,34.50
2023-05-20T16:58:53.002Z,34.00
2023-05-20T17:01:29.504Z,33.30
2023-05-20T17:04:11.198Z,32.70
2023-05-20T17:06:50.146Z,31.90
2023-05-20T17:09:26.265Z,31.40
2023-05-20T17:12:03.751Z,30.90
2023-05-20T17:14:39.861Z,30.50
2023-05-20T17:17:16.471Z,30.10
2023-05-20T17:19:52.983Z,29.50
2023-05-20T17:22:29.032Z,29.30
2023-05-20T17:25:05.961Z,29.00
2023-05-20T17:27:42.033Z,28.80
2023-05-20T17:30:36.141Z,28.50
2023-05-20T17:33:12.722Z,28.40
2023-05-20T17:35:48.871Z,28.20
2023-05-20T17:38:26.456Z,28.10
2023-05-20T17:41:02.408Z,28.00
2023-05-20T17:43:43.087Z,27.80
2023-05-20T17:46:19.287Z,27.70
2023-05-20T17:48:56.816Z,27.40
2023-05-20T17:51:32.884Z,27.20
2023-05-20T17:54:19.576Z,27.00
2023-05-20T17:56:55.763Z,26.80
2023-05-20T17:59:33.832Z,26.60
2023-05-20T18:02:09.983Z,26.50
2023-05-20T18:04:46.203Z,26.30
2023-05-20T18:07:22.385Z,26.10
2023-05-20T18:09:58.496Z,26.00
2023-05-20T18:13:41.976Z,25.80
2023-05-20T18:16:40.080Z,25.60
2023-05-20T18:19:27.837Z,25.40
2023-05-20T18:22:19.712Z,25.30
2023-05-20T18:25:00.863Z,25.20
2023-05-20T18:27:50.861Z,25.10
2023-05-20T18:30:30.325Z,25.00
2023-05-20T18:33:06.748Z,24.90
2023-05-20T18:35:42.982Z,24.70
2023-05-20T18:38:18.973Z,24.60
2023-05-20T18:40:55.129Z,24.50
2023-05-20T18:43:31.185Z,24.40
2023-05-20T18:46:07.326Z,24.30
2023-05-20T18:48:43.351Z,24.10
2023-05-20T18:51:22.357Z,24.10
2023-05-20T18:54:01.109Z,23.90
2023-05-20T18:56:37.497Z,23.70
2023-05-20T18:59:13.652Z,23.70
2023-05-20T19:01:49.562Z,23.50
2023-05-20T19:04:26.091Z,23.40
2023-05-20T19:07:02.537Z,23.30
2023-05-20T19:09:38.458Z,23.20
2023-05-20T19:12:14.443Z,23.10
2023-05-20T19:14:50.469Z,23.00
2023-05-20T19:17:26.587Z,22.90
2023-05-20T19:20:02.620Z,22.80
2023-05-20T19:22:39.330Z,22.70
2023-05-20T19:25:15.645Z,22.70
2023-05-20T19:27:51.578Z,22.60
2023-05-20T19:30:27.626Z,22.50
2023-05-20T19:33:05.169Z,22.50
2023-05-20T19:35:41.277Z,22.40
2023-05-20T19:38:17.344Z,22.30
2023-05-20T19:40:53.271Z,22.30
2023-05-20T19:43:30.483Z,22.20
2023-05-20T19:46:06.730Z,22.10
2023-05-20T19:48:42.652Z,22.10
2023-05-20T19:51:18.643Z,22.00
2023-05-20T19:53:54.652Z,21.90
2023-05-20T19:56:30.668Z,21.90
2023-05-20T19:59:06.956Z,21.80
2023-05-20T20:01:43.161Z,21.70
2023-05-20T20:04:19.342Z,21.70
2023-05-20T20:06:55.589Z,21.60
2023-05-20T20:09:31.509Z,21.60
2023-05-20T20:12:07.757Z,21.50
2023-05-20T20:14:43.622Z,21.50
2023-05-20T20:17:20.705Z,21.40
2023-05-20T20:19:58.794Z,21.30
2023-05-20T20:22:34.764Z,21.30
2023-05-20T20:25:13.794Z,21.30
2023-05-20T20:27:50.060Z,21.20
2023-05-20T20:30:25.984Z,21.10
2023-05-20T20:33:06.162Z,21.10
2023-05-20T20:35:42.629Z,21.10
2023-05-20T20:38:19.721Z,21.00
2023-05-20T20:40:55.938Z,21.00
2023-05-20T20:43:34.907Z,20.90
2023-05-20T20:46:14.805Z,20.80
2023-05-20T20:48:50.722Z,20.80
2023-05-20T20:51:27.109Z,20.70
2023-05-20T20:54:03.233Z,20.70
2023-05-20T20:56:39.765Z,20.70
2023-05-20T20:59:15.892Z,20.60
2023-05-20T21:01:52.807Z,20.60
2023-05-20T21:04:29.066Z,20.50
2023-05-20T21:07:05.277Z,20.40
2023-05-20T21:09:41.629Z,20.40
2023-05-20T21:12:17.558Z,20.30
2023-05-20T21:14:54.574Z,20.30
2023-05-20T21:17:30.589Z,20.20
2023-05-20T21:20:07.608Z,20.10
2023-05-20T21:22:44.010Z,20.10
2023-05-20T21:25:20.026Z,20.00
2023-05-20T21:27:56.096Z,19.90
2023-05-20T21:30:32.777Z,19.90
2023-05-20T21:33:09.808Z,19.80
2023-05-20T21:35:45.912Z,19.80
2023-05-20T21:38:21.852Z,19.70
2023-05-20T21:40:58.709Z,19.70
2023-05-20T21:43:35.933Z,19.60
2023-05-20T21:46:11.951Z,19.50
2023-05-20T21:48:47.848Z,19.50
2023-05-20T21:51:23.782Z,19.50
2023-05-20T21:53:59.663Z,19.50
2023-05-20T21:56:35.534Z,19.40
2023-05-20T21:59:11.423Z,19.40
2023-05-20T22:01:47.470Z,19.30
2023-05-20T22:04:24.698Z,19.30
2023-05-20T22:07:00.825Z,19.20
2023-05-20T22:09:36.684Z,19.20
2023-05-20T22:12:15.253Z,19.10
2023-05-20T22:14:51.182Z,19.10
2023-05-20T22:17:27.217Z,19.00
2023-05-20T22:20:11.142Z,19.00
2023-05-20T22:22:47.506Z,19.00
2023-05-20T22:25:23.415Z,18.90
2023-05-20T22:27:59.360Z,18.90
2023-05-20T22:30:35.558Z,18.80
2023-05-20T22:33:11.961Z,18.80
2023-05-20T22:35:47.849Z,18.80
2023-05-20T22:38:23.925Z,18.70
2023-05-20T22:40:59.807Z,18.70
2023-05-20T22:43:36.689Z,18.70
2023-05-20T22:46:13.200Z,18.70
2023-05-20T22:48:52.797Z,18.60
2023-05-20T22:51:28.760Z,18.60
2023-05-20T22:54:06.682Z,18.60
2023-05-20T22:56:42.676Z,18.60
2023-05-20T22:59:18.584Z,18.60
2023-05-20T23:01:54.503Z,18.50
2023-05-20T23:04:30.500Z,18.50
2023-05-20T23:07:06.430Z,18.40
2023-05-20T23:09:42.325Z,18.40
2023-05-20T23:12:18.253Z,18.40
2023-05-20T23:14:54.153Z,18.40
2023-05-20T23:17:30.157Z,18.30
2023-05-20T23:20:10.826Z,18.30
2023-05-20T23:22:46.817Z,18.20
2023-05-20T23:25:24.322Z,18.20
2023-05-20T23:28:01.034Z,18.20
2023-05-20T23:30:36.969Z,18.10
2023-05-20T23:33:13.068Z,18.10
2023-05-20T23:35:49.033Z,18.10
2023-05-20T23:38:25.078Z,18.10
2023-05-20T23:41:01.089Z,18.10
2023-05-20T23:43:37.005Z,18.00
2023-05-20T23:46:12.959Z,18.00
2023-05-20T23:48:49.805Z,17.90
2023-05-20T23:51:25.860Z,17.90
2023-05-20T23:54:01.855Z,18.00
2023-05-20T23:56:37.735Z,17.80
2023-05-20T23:59:13.599Z,17.80
